createdAt,value
2023-01-27T00:00:35.824Z,9.33
2023-01-27T00:03:06.444Z,9.70
2023-01-27T00:05:36.865Z,9.23
2023-01-27T00:08:07.401Z,9.73
2023-01-27T00:10:40.802Z,8.50
2023-01-27T00:13:27.223Z,9.37
2023-01-27T00:15:57.804Z,8.47
2023-01-27T00:18:28.448Z,8.30
2023-01-27T00:21:18.180Z,8.40
2023-01-27T00:24:06.635Z,8.40
2023-01-27T00:26:37.042Z,8.03
2023-01-27T00:32:01.491Z,8.13
2023-01-27T00:34:32.097Z,8.30
2023-01-27T00:37:02.795Z,9.10
2023-01-27T00:39:33.371Z,8.27
2023-01-27T00:42:06.477Z,9.43
2023-01-27T00:44:37.068Z,7.93
2023-01-27T00:47:07.968Z,7.90
2023-01-27T00:49:38.761Z,8.37
2023-01-27T00:52:10.761Z,8.20
2023-01-27T00:54:41.628Z,8.30
2023-01-27T00:57:12.155Z,8.40
2023-01-27T00:59:42.636Z,7.87
2023-01-27T01:02:13.331Z,8.83
2023-01-27T01:04:44.076Z,9.33
2023-01-27T01:07:16.781Z,8.30
2023-01-27T01:09:47.434Z,9.13
2023-01-27T01:12:18.229Z,8.60
2023-01-27T01:14:48.654Z,8.77
2023-01-27T01:17:19.112Z,9.47
2023-01-27T01:19:49.887Z,9.70
2023-01-27T01:22:21.862Z,7.83
2023-01-27T01:24:52.411Z,9.00
2023-01-27T01:27:22.888Z,8.23
2023-01-27T01:29:53.471Z,9.10
2023-01-27T01:32:23.995Z,9.07
2023-01-27T01:34:54.392Z,9.53
2023-01-27T01:37:25.241Z,8.10
2023-01-27T01:39:55.611Z,8.87
2023-01-27T01:42:27.397Z,9.10
2023-01-27T01:45:36.719Z,9.80
2023-01-27T01:48:25.201Z,9.17
2023-01-27T01:51:09.291Z,8.63
2023-01-27T01:53:42.776Z,9.57
2023-01-27T01:56:16.286Z,9.83
2023-01-27T01:58:48.194Z,10.03
2023-01-27T02:01:19.483Z,9.00
2023-01-27T02:03:53.052Z,9.07
2023-01-27T02:06:23.869Z,8.93
2023-01-27T02:08:55.902Z,9.10
2023-01-27T02:11:28.167Z,8.50
2023-01-27T02:14:02.071Z,9.13
2023-01-27T02:16:33.835Z,8.67
2023-01-27T02:19:06.148Z,8.90
2023-01-27T02:21:38.384Z,9.17
2023-01-27T02:24:12.049Z,8.17
2023-01-27T02:26:45.191Z,8.40
2023-01-27T02:29:17.112Z,9.43
2023-01-27T02:31:47.664Z,9.67
2023-01-27T02:34:22.906Z,8.53
2023-01-27T02:36:57.585Z,8.57
2023-01-27T02:39:33.793Z,8.57
2023-01-27T02:42:07.115Z,8.90
2023-01-27T02:44:39.451Z,8.40
2023-01-27T02:47:09.944Z,9.10
2023-01-27T02:49:40.335Z,8.30
2023-01-27T02:52:10.697Z,8.93
2023-01-27T02:54:41.276Z,7.43
2023-01-27T02:57:14.124Z,8.10
2023-01-27T02:59:43.867Z,9.13
2023-01-27T03:02:15.952Z,7.87
2023-01-27T03:04:47.157Z,8.50
2023-01-27T03:07:17.692Z,9.27
2023-01-27T03:09:48.652Z,7.87
2023-01-27T03:12:20.825Z,8.13
2023-01-27T03:15:11.953Z,7.97
2023-01-27T03:18:00.571Z,8.30
2023-01-27T03:20:31.376Z,8.80
2023-01-27T03:23:02.586Z,8.00
2023-01-27T03:25:33.456Z,8.30
2023-01-27T03:28:06.594Z,8.70
2023-01-27T03:30:38.120Z,8.37
2023-01-27T03:33:10.829Z,8.80
2023-01-27T03:35:42.949Z,7.63
2023-01-27T03:38:33.167Z,9.10
2023-01-27T03:41:24.898Z,8.47
2023-01-27T03:44:14.466Z,7.90
2023-01-27T03:46:45.260Z,8.07
2023-01-27T03:49:15.819Z,7.70
2023-01-27T03:51:46.445Z,8.70
2023-01-27T03:54:17.320Z,7.93
2023-01-27T03:56:51.337Z,7.43
2023-01-27T03:59:21.943Z,7.80
2023-01-27T04:01:52.303Z,6.93
2023-01-27T04:04:40.809Z,6.57
2023-01-27T04:07:11.435Z,6.73
2023-01-27T04:09:42.646Z,6.67
2023-01-27T04:12:13.074Z,7.40
2023-01-27T04:14:43.851Z,7.27
2023-01-27T04:17:19.533Z,8.80
2023-01-27T04:19:53.037Z,8.27
2023-01-27T04:22:23.612Z,8.83
2023-01-27T04:24:54.037Z,8.40
2023-01-27T04:27:24.563Z,9.30
2023-01-27T04:29:54.950Z,8.70
2023-01-27T04:32:26.967Z,7.50
2023-01-27T04:34:57.524Z,7.87
2023-01-27T04:37:28.317Z,6.87
2023-01-27T04:39:58.843Z,7.10
2023-01-27T04:42:30.774Z,7.43
2023-01-27T04:45:01.341Z,7.67
2023-01-27T04:47:31.820Z,6.50
2023-01-27T04:50:02.238Z,6.97
2023-01-27T04:52:34.479Z,7.20
2023-01-27T04:55:05.246Z,6.87
2023-01-27T04:57:38.904Z,6.27
2023-01-27T05:00:11.538Z,7.37
2023-01-27T05:02:43.314Z,7.00
2023-01-27T05:05:14.140Z,6.20
2023-01-27T05:07:45.928Z,8.03
2023-01-27T05:10:18.459Z,8.40
2023-01-27T05:12:49.033Z,6.60
2023-01-27T05:15:19.460Z,6.57
2023-01-27T05:17:50.707Z,6.30
2023-01-27T05:20:21.237Z,7.03
2023-01-27T05:22:54.390Z,6.50
2023-01-27T05:25:25.162Z,7.13
2023-01-27T05:27:55.633Z,6.57
2023-01-27T05:30:27.885Z,7.40
2023-01-27T05:32:58.813Z,7.40
2023-01-27T05:35:31.016Z,7.83
2023-01-27T05:38:01.817Z,7.33
2023-01-27T05:40:35.252Z,7.43
2023-01-27T05:43:05.842Z,7.60
2023-01-27T05:45:36.286Z,8.07
2023-01-27T05:48:08.257Z,7.73
2023-01-27T05:50:38.985Z,8.00
2023-01-27T05:53:10.771Z,8.10
2023-01-27T05:55:44.422Z,7.77
2023-01-27T05:58:14.847Z,8.47
2023-01-27T06:00:46.457Z,8.13
2023-01-27T06:03:18.465Z,8.77
2023-01-27T06:05:56.902Z,8.00
2023-01-27T06:08:29.329Z,8.10
2023-01-27T06:11:00.408Z,7.57
2023-01-27T06:13:32.746Z,8.70
2023-01-27T06:16:09.588Z,8.33
2023-01-27T06:18:40.830Z,8.33
2023-01-27T06:21:14.196Z,8.47
2023-01-27T06:23:45.113Z,8.80
2023-01-27T06:26:18.461Z,8.17
2023-01-27T06:28:50.348Z,7.40
2023-01-27T06:31:23.180Z,7.77
2023-01-27T06:33:54.098Z,8.17
2023-01-27T06:36:24.942Z,7.23
2023-01-27T06:38:55.257Z,7.60
2023-01-27T06:41:25.876Z,8.00
2023-01-27T06:43:56.483Z,7.77
2023-01-27T06:46:26.944Z,7.50
2023-01-27T06:48:57.471Z,8.17
2023-01-27T06:51:28.097Z,7.20
2023-01-27T06:53:58.615Z,6.93
2023-01-27T06:56:30.712Z,7.53
2023-01-27T06:59:01.192Z,8.07
2023-01-27T07:01:31.707Z,7.73
2023-01-27T07:04:02.239Z,7.07
2023-01-27T07:06:34.464Z,8.57
2023-01-27T07:09:05.108Z,8.60
2023-01-27T07:11:35.722Z,8.87
2023-01-27T07:14:06.051Z,9.20
2023-01-27T07:16:36.590Z,8.47
2023-01-27T07:19:07.490Z,7.50
2023-01-27T07:21:38.900Z,10.00
2023-01-27T07:24:09.593Z,9.63
2023-01-27T07:26:41.756Z,10.00
2023-01-27T07:29:12.240Z,10.27
2023-01-27T07:31:42.926Z,12.60
2023-01-27T07:34:13.507Z,10.80
2023-01-27T07:36:44.109Z,9.93
2023-01-27T07:39:14.597Z,10.40
2023-01-27T07:41:45.335Z,9.10
2023-01-27T07:44:16.023Z,8.87
2023-01-27T07:46:48.871Z,9.13
2023-01-27T07:49:21.634Z,9.27
2023-01-27T07:51:52.609Z,8.83
2023-01-27T07:54:25.314Z,9.60
2023-01-27T07:56:55.906Z,9.53
2023-01-27T07:59:28.115Z,9.63
2023-01-27T08:02:01.056Z,9.70
2023-01-27T08:04:43.420Z,9.47
2023-01-27T08:07:04.724Z,10.43
2023-01-27T08:09:36.570Z,9.63
2023-01-27T08:12:10.073Z,11.37
2023-01-27T08:14:40.693Z,9.73
2023-01-27T08:17:12.972Z,8.50
2023-01-27T08:19:44.023Z,9.47
2023-01-27T08:22:18.634Z,8.83
2023-01-27T08:24:52.107Z,9.13
2023-01-27T08:27:25.675Z,9.27
2023-01-27T08:29:57.438Z,11.00
2023-01-27T08:32:31.117Z,9.10
2023-01-27T08:35:06.610Z,8.97
2023-01-27T08:37:37.445Z,8.23
2023-01-27T08:40:10.991Z,8.43
2023-01-27T08:42:42.263Z,7.47
2023-01-27T08:45:15.675Z,8.40
2023-01-27T08:47:50.185Z,8.10
2023-01-27T08:50:23.474Z,7.90
2023-01-27T08:52:54.309Z,8.53
2023-01-27T08:55:25.375Z,8.70
2023-01-27T08:57:56.365Z,8.37
2023-01-27T09:00:27.485Z,7.63
2023-01-27T09:02:57.939Z,7.87
2023-01-27T09:05:30.897Z,8.00
2023-01-27T09:08:02.039Z,7.53
2023-01-27T09:10:34.293Z,7.57
2023-01-27T09:13:05.305Z,7.90
2023-01-27T09:15:37.466Z,6.53
2023-01-27T09:18:08.305Z,6.97
2023-01-27T09:20:39.475Z,6.60
2023-01-27T09:23:09.961Z,7.70
2023-01-27T09:25:41.941Z,7.67
2023-01-27T09:28:14.974Z,6.33
2023-01-27T09:30:50.404Z,6.47
2023-01-27T09:33:20.932Z,6.83
2023-01-27T09:35:54.553Z,7.30
2023-01-27T09:38:27.656Z,6.50
2023-01-27T09:41:01.159Z,6.87
2023-01-27T09:43:57.475Z,7.40
2023-01-27T09:47:00.945Z,7.23
2023-01-27T09:49:40.596Z,7.00
2023-01-27T09:52:47.650Z,6.43
2023-01-27T09:55:22.194Z,7.90
2023-01-27T09:58:07.366Z,7.10
2023-01-27T10:00:43.591Z,7.37
2023-01-27T10:03:25.183Z,6.80
2023-01-27T10:06:01.779Z,7.77
2023-01-27T10:08:57.885Z,7.80
2023-01-27T10:11:49.012Z,7.87
2023-01-27T10:14:39.004Z,7.03
2023-01-27T10:17:33.423Z,6.77
2023-01-27T10:20:10.914Z,7.50
2023-01-27T10:23:01.246Z,7.33
2023-01-27T10:26:01.297Z,7.33
2023-01-27T10:28:35.460Z,6.60
2023-01-27T10:31:25.755Z,6.93
2023-01-27T10:34:01.675Z,6.70
2023-01-27T10:36:52.035Z,6.67
2023-01-27T10:39:39.340Z,6.50
2023-01-27T10:42:22.341Z,6.80
2023-01-27T10:45:23.579Z,6.10
2023-01-27T10:48:06.362Z,5.80
2023-01-27T10:50:43.497Z,6.37
2023-01-27T10:53:17.352Z,6.30
2023-01-27T10:56:09.141Z,6.37
2023-01-27T10:59:00.812Z,6.33
2023-01-27T11:01:37.382Z,6.20
2023-01-27T11:04:11.908Z,5.30
2023-01-27T11:06:45.085Z,6.27
2023-01-27T11:09:30.710Z,6.10
2023-01-27T11:12:10.324Z,5.63
2023-01-27T11:14:52.945Z,5.80
2023-01-27T11:17:33.753Z,6.10
2023-01-27T11:20:07.627Z,6.10
2023-01-27T11:22:46.985Z,5.53
2023-01-27T11:25:29.462Z,6.10
2023-01-27T11:28:22.890Z,5.70
2023-01-27T11:31:11.616Z,5.13
2023-01-27T11:34:00.786Z,5.60
2023-01-27T11:36:31.814Z,6.33
2023-01-27T11:39:04.507Z,5.77
2023-01-27T11:41:41.138Z,5.93
2023-01-27T11:44:19.759Z,5.60
2023-01-27T11:46:52.592Z,5.70
2023-01-27T11:49:33.504Z,6.37
2023-01-27T11:52:16.866Z,5.33
2023-01-27T11:54:57.717Z,6.83
2023-01-27T11:57:28.374Z,7.13
2023-01-27T12:00:02.770Z,5.47
2023-01-27T12:02:54.913Z,5.60
2023-01-27T12:05:37.791Z,5.67
2023-01-27T12:08:09.798Z,5.40
2023-01-27T12:10:42.975Z,5.97
2023-01-27T12:13:22.452Z,5.30
2023-01-27T12:16:02.106Z,6.20
2023-01-27T12:18:39.058Z,5.83
2023-01-27T12:21:10.601Z,6.00
2023-01-27T12:23:55.331Z,6.73
2023-01-27T12:26:39.080Z,6.83
2023-01-27T12:29:19.087Z,6.77
2023-01-27T12:31:53.579Z,5.80
2023-01-27T12:34:36.375Z,6.60
2023-01-27T12:37:13.097Z,6.73
2023-01-27T12:40:07.586Z,7.27
2023-01-27T12:42:44.300Z,6.40
2023-01-27T12:45:40.916Z,6.07
2023-01-27T12:48:15.098Z,6.53
2023-01-27T12:50:57.316Z,5.70
2023-01-27T12:53:32.300Z,6.30
2023-01-27T12:56:14.695Z,6.43
2023-01-27T12:58:58.314Z,5.47
2023-01-27T13:01:33.855Z,5.63
2023-01-27T13:04:20.721Z,5.20
2023-01-27T13:06:54.931Z,5.90
2023-01-27T13:09:35.963Z,5.93
2023-01-27T13:12:12.627Z,5.57
2023-01-27T13:14:44.274Z,6.30
2023-01-27T13:17:32.859Z,6.13
2023-01-27T13:20:13.017Z,6.73
2023-01-27T13:22:49.996Z,4.83
2023-01-27T13:25:27.025Z,5.57
2023-01-27T13:28:00.469Z,6.33
2023-01-27T13:30:41.434Z,5.43
2023-01-27T13:33:41.145Z,7.60
2023-01-27T13:36:25.865Z,4.77
2023-01-27T13:39:09.449Z,4.60
2023-01-27T13:41:52.509Z,5.43
2023-01-27T13:44:30.575Z,4.50
2023-01-27T13:47:08.850Z,4.20
2023-01-27T13:49:57.469Z,5.07
2023-01-27T13:52:29.366Z,5.10
2023-01-27T13:55:01.399Z,5.17
2023-01-27T13:57:54.111Z,7.17
2023-01-27T14:00:27.578Z,5.93
2023-01-27T14:03:22.159Z,5.77
2023-01-27T14:06:20.109Z,4.40
2023-01-27T14:09:18.327Z,4.70
2023-01-27T14:11:54.524Z,4.43
2023-01-27T14:14:56.133Z,4.57
2023-01-27T14:17:25.576Z,4.10
2023-01-27T14:20:20.457Z,4.43
2023-01-27T14:23:23.050Z,4.07
2023-01-27T14:26:19.653Z,4.20
2023-01-27T14:29:17.188Z,4.47
2023-01-27T14:31:54.320Z,3.77
2023-01-27T14:35:04.804Z,3.50
2023-01-27T14:37:48.452Z,3.20
2023-01-27T14:40:22.360Z,3.20
2023-01-27T14:43:24.876Z,3.43
2023-01-27T14:46:01.316Z,3.42
2023-01-27T14:49:00.749Z,3.60
2023-01-27T14:51:40.531Z,3.17
2023-01-27T14:54:20.510Z,4.07
2023-01-27T14:56:56.439Z,4.33
2023-01-27T14:59:45.148Z,4.80
2023-01-27T15:02:33.614Z,4.20
2023-01-27T15:05:22.937Z,3.90
2023-01-27T15:08:24.517Z,4.43
2023-01-27T15:10:58.019Z,4.47
2023-01-27T15:13:46.935Z,5.10
2023-01-27T15:16:30.931Z,4.80
2023-01-27T15:19:13.300Z,4.17
2023-01-27T15:22:09.664Z,3.90
2023-01-27T15:24:51.295Z,4.25
2023-01-27T15:27:26.020Z,3.80
2023-01-27T15:29:59.559Z,4.43
2023-01-27T15:32:38.034Z,3.97
2023-01-27T15:35:30.362Z,5.10
2023-01-27T15:38:11.034Z,4.83
2023-01-27T15:41:01.624Z,5.03
2023-01-27T15:43:33.180Z,5.00
2023-01-27T15:46:24.917Z,4.37
2023-01-27T15:48:58.042Z,5.07
2023-01-27T15:51:31.623Z,5.70
2023-01-27T15:54:04.009Z,4.95
2023-01-27T15:56:53.732Z,4.57
2023-01-27T15:59:27.303Z,4.50
2023-01-27T16:02:18.948Z,3.93
2023-01-27T16:04:59.147Z,7.27
2023-01-27T16:07:35.367Z,5.57
2023-01-27T16:10:09.112Z,5.37
2023-01-27T16:12:46.665Z,5.43
2023-01-27T16:15:20.303Z,5.20
2023-01-27T16:18:08.882Z,4.92
2023-01-27T16:20:54.308Z,5.27
2023-01-27T16:23:47.175Z,6.35
2023-01-27T16:26:30.959Z,6.10
2023-01-27T16:29:20.994Z,5.20
2023-01-27T16:31:53.840Z,5.63
2023-01-27T16:34:27.897Z,4.33
2023-01-27T16:37:14.715Z,5.83
2023-01-27T16:39:48.448Z,5.30
2023-01-27T16:42:23.866Z,5.83
2023-01-27T16:44:55.442Z,5.77
2023-01-27T16:47:30.070Z,6.40
2023-01-27T16:50:00.728Z,5.80
2023-01-27T16:52:41.582Z,6.17
2023-01-27T16:55:06.838Z,9.23
2023-01-27T16:57:40.499Z,5.87
2023-01-27T17:00:26.062Z,5.30
2023-01-27T17:02:59.335Z,4.27
2023-01-27T17:05:30.709Z,5.23
2023-01-27T17:08:12.704Z,5.03
2023-01-27T17:10:47.656Z,6.07
2023-01-27T17:13:39.081Z,6.13
2023-01-27T17:16:13.169Z,4.87
2023-01-27T17:18:52.297Z,5.50
2023-01-27T17:21:17.704Z,5.03
2023-01-27T17:23:50.016Z,4.93
2023-01-27T17:26:20.877Z,4.57
2023-01-27T17:28:51.408Z,5.27
2023-01-27T17:31:24.581Z,4.53
2023-01-27T17:34:00.802Z,4.60
2023-01-27T17:36:31.460Z,3.70
2023-01-27T17:39:02.329Z,4.67
2023-01-27T17:41:37.998Z,6.23
2023-01-27T17:44:16.391Z,4.30
2023-01-27T17:46:46.895Z,4.60
2023-01-27T17:49:19.514Z,5.60
2023-01-27T17:51:53.242Z,5.60
2023-01-27T17:54:37.448Z,4.90
2023-01-27T17:57:11.274Z,5.07
2023-01-27T17:59:45.073Z,5.60
2023-01-27T18:02:23.126Z,3.83
2023-01-27T18:04:55.383Z,4.23
2023-01-27T18:07:28.260Z,6.90
2023-01-27T18:09:59.098Z,8.90
2023-01-27T18:12:37.534Z,7.37
2023-01-27T18:15:39.844Z,6.83
2023-01-27T18:18:25.259Z,5.10
2023-01-27T18:21:10.684Z,4.73
2023-01-27T18:23:46.569Z,5.67
2023-01-27T18:26:35.405Z,5.27
2023-01-27T18:29:16.831Z,5.45
2023-01-27T18:31:57.654Z,4.33
2023-01-27T18:34:34.598Z,4.60
2023-01-27T18:37:08.497Z,3.87
2023-01-27T18:39:42.466Z,4.67
2023-01-27T18:42:16.038Z,4.10
2023-01-27T18:44:48.354Z,3.60
2023-01-27T18:47:21.835Z,3.80
2023-01-27T18:49:58.140Z,4.00
2023-01-27T18:52:30.753Z,3.93
2023-01-27T18:55:26.457Z,5.03
2023-01-27T18:57:59.313Z,4.50
2023-01-27T19:00:34.461Z,5.23
2023-01-27T19:03:07.754Z,4.27
2023-01-27T19:05:38.491Z,4.10
2023-01-27T19:08:12.004Z,3.80
2023-01-27T19:10:43.048Z,4.37
2023-01-27T19:13:15.519Z,4.17
2023-01-27T19:15:49.918Z,3.77
2023-01-27T19:18:27.615Z,3.60
2023-01-27T19:20:58.079Z,3.40
2023-01-27T19:23:29.793Z,4.00
2023-01-27T19:26:03.486Z,8.13
2023-01-27T19:28:38.905Z,3.97
2023-01-27T19:31:09.633Z,3.67
2023-01-27T19:33:42.188Z,3.67
2023-01-27T19:36:24.127Z,3.97
2023-01-27T19:38:57.678Z,3.87
2023-01-27T19:41:28.702Z,3.55
2023-01-27T19:43:59.244Z,4.33
2023-01-27T19:46:32.173Z,3.33
2023-01-27T19:49:04.371Z,3.60
2023-01-27T19:51:36.662Z,3.63
2023-01-27T19:54:08.886Z,4.10
2023-01-27T19:56:39.646Z,4.13
2023-01-27T19:59:11.067Z,4.00
2023-01-27T20:01:41.564Z,3.47
2023-01-27T20:04:12.074Z,3.60
2023-01-27T20:06:42.702Z,3.97
2023-01-27T20:09:15.235Z,3.90
2023-01-27T20:11:47.218Z,3.50
2023-01-27T20:14:19.977Z,3.58
2023-01-27T20:16:50.575Z,3.80
2023-01-27T20:19:21.013Z,3.90
2023-01-27T20:21:51.523Z,3.63
2023-01-27T20:24:22.439Z,3.30
2023-01-27T20:26:53.576Z,3.67
2023-01-27T20:29:23.849Z,3.93
2023-01-27T20:31:55.790Z,4.43
2023-01-27T20:34:26.367Z,3.70
2023-01-27T20:36:57.441Z,3.70
2023-01-27T20:39:27.893Z,4.03
2023-01-27T20:41:59.938Z,4.30
2023-01-27T20:44:30.358Z,4.60
2023-01-27T20:47:00.871Z,4.00
2023-01-27T20:49:34.940Z,4.17
2023-01-27T20:52:04.657Z,3.42
2023-01-27T20:54:35.413Z,3.80
2023-01-27T20:57:05.935Z,4.00
2023-01-27T20:59:36.535Z,3.67
2023-01-27T21:02:07.916Z,3.67
2023-01-27T21:04:40.120Z,5.17
2023-01-27T21:07:10.602Z,3.90
2023-01-27T21:09:41.044Z,4.23
2023-01-27T21:12:11.432Z,3.63
2023-01-27T21:14:42.077Z,4.03
2023-01-27T21:17:12.711Z,3.90
2023-01-27T21:19:43.247Z,3.60
2023-01-27T21:22:14.093Z,3.87
2023-01-27T21:24:46.164Z,4.00
2023-01-27T21:27:16.568Z,3.27
2023-01-27T21:29:47.524Z,3.50
2023-01-27T21:32:19.713Z,2.85
2023-01-27T21:34:50.133Z,3.80
2023-01-27T21:37:20.586Z,3.30
2023-01-27T21:39:53.089Z,3.63
2023-01-27T21:42:42.707Z,3.77
2023-01-27T21:45:15.804Z,4.20
2023-01-27T21:47:46.637Z,4.03
2023-01-27T21:50:18.103Z,3.80
2023-01-27T21:52:50.746Z,3.80
2023-01-27T21:55:24.121Z,4.27
2023-01-27T21:57:56.466Z,3.53
2023-01-27T22:00:29.092Z,4.83
2023-01-27T22:03:02.860Z,3.63
2023-01-27T22:05:34.663Z,3.97
2023-01-27T22:08:07.052Z,4.50
2023-01-27T22:10:38.098Z,3.70
2023-01-27T22:13:09.683Z,3.70
2023-01-27T22:15:41.223Z,3.53
2023-01-27T22:18:14.253Z,4.33
2023-01-27T22:20:46.177Z,3.27
2023-01-27T22:23:18.366Z,3.50
2023-01-27T22:25:53.645Z,4.17
2023-01-27T22:28:26.512Z,3.77
2023-01-27T22:31:00.417Z,5.23
2023-01-27T22:33:32.338Z,4.50
2023-01-27T22:36:05.088Z,4.60
2023-01-27T22:38:43.043Z,3.83
2023-01-27T22:41:13.571Z,4.50
2023-01-27T22:43:47.160Z,4.80
2023-01-27T22:46:18.521Z,4.30
2023-01-27T22:48:51.379Z,4.63
2023-01-27T22:51:22.110Z,4.57
2023-01-27T22:53:52.629Z,4.77
2023-01-27T22:56:23.181Z,4.47
2023-01-27T22:58:53.809Z,4.20
2023-01-27T23:01:24.285Z,3.93
2023-01-27T23:03:54.880Z,3.40
2023-01-27T23:06:25.374Z,5.93
2023-01-27T23:08:55.858Z,4.83
2023-01-27T23:11:26.658Z,3.70
2023-01-27T23:13:57.720Z,5.83
2023-01-27T23:16:28.059Z,4.07
2023-01-27T23:18:58.589Z,3.30
2023-01-27T23:21:31.492Z,4.40
2023-01-27T23:24:01.923Z,4.93
2023-01-27T23:26:32.806Z,4.27
2023-01-27T23:29:05.173Z,4.00
2023-01-27T23:31:35.563Z,7.33
2023-01-27T23:34:06.653Z,4.90
2023-01-27T23:36:37.246Z,4.30
2023-01-27T23:39:08.891Z,4.00
2023-01-27T23:41:40.851Z,3.97
2023-01-27T23:44:13.500Z,3.60
2023-01-27T23:46:43.878Z,3.60
2023-01-27T23:49:15.914Z,3.93
2023-01-27T23:51:46.429Z,4.17
2023-01-27T23:54:17.139Z,4.80
2023-01-27T23:56:47.639Z,4.37
2023-01-27T23:59:19.627Z,4.33
